Time;durP1;ratioP1;P1;durP2;ratioP2;P2;SDS_P1;SDS_P2;PMS_P1;PMS_P2;Temp;Humidity;BMP_temperature;BMP_pressure;BME280_temperature;BME280_humidity;BME280_pressure;Samples;Min_cycle;Max_cycle;Signal;HPM_P1;HPM_P2
2022/10/07 00:02:02;;;;;;;8.00;2.40;;;15.20;68.70;;;;;;5058665;28;20031;-75
2022/10/07 00:04:30;;;;;;;6.50;1.80;;;15.10;68.60;;;;;;5048677;28;20012;-74
2022/10/07 00:06:56;;;;;;;5.03;2.70;;;15.10;68.70;;;;;;5054348;28;20033;-73
2022/10/07 00:09:22;;;;;;;5.65;2.70;;;15.10;68.70;;;;;;5049136;28;20451;-73
2022/10/07 00:11:48;;;;;;;8.32;2.17;;;15.00;68.50;;;;;;5048642;28;20027;-74
2022/10/07 00:14:16;;;;;;;7.28;1.77;;;15.00;68.70;;;;;;5040362;28;20021;-75
2022/10/07 00:16:42;;;;;;;8.68;2.80;;;15.00;68.70;;;;;;5046272;28;20235;-75
2022/10/07 00:19:11;;;;;;;4.60;1.48;;;15.00;68.80;;;;;;5047985;28;20044;-75
2022/10/07 00:21:40;;;;;;;5.93;2.15;;;14.90;68.70;;;;;;5048213;28;20313;-74
2022/10/07 00:24:07;;;;;;;6.93;1.90;;;15.00;68.90;;;;;;5047791;28;20037;-74
2022/10/07 00:26:34;;;;;;;9.73;2.00;;;14.90;68.80;;;;;;5049236;28;20509;-75
2022/10/07 00:29:01;;;;;;;9.10;2.30;;;14.90;68.90;;;;;;5049128;28;20199;-74
2022/10/07 00:31:30;;;;;;;5.45;1.85;;;14.90;68.90;;;;;;5029091;28;20048;-75
2022/10/07 00:33:57;;;;;;;7.97;3.13;;;14.90;69.10;;;;;;5039108;28;20554;-74
2022/10/07 00:36:25;;;;;;;9.98;3.45;;;14.90;69.00;;;;;;5046431;28;20048;-74
2022/10/07 00:38:57;;;;;;;5.88;1.55;;;14.80;68.90;;;;;;5048679;28;20362;-75
2022/10/07 00:41:27;;;;;;;5.50;2.30;;;14.80;68.90;;;;;;5047049;28;20032;-75
2022/10/07 00:43:53;;;;;;;10.35;2.53;;;14.80;69.00;;;;;;5056707;28;20021;-74
2022/10/07 00:46:30;;;;;;;7.72;2.42;;;14.80;69.00;;;;;;5034686;28;20029;-74
2022/10/07 00:48:59;;;;;;;7.25;1.77;;;14.80;69.10;;;;;;5047815;28;20021;-74
2022/10/07 00:51:26;;;;;;;14.13;4.25;;;14.80;69.10;;;;;;5056753;28;20041;-75
2022/10/07 00:53:54;;;;;;;4.57;1.77;;;14.80;69.20;;;;;;5039706;28;20022;-75
2022/10/07 00:56:22;;;;;;;8.23;1.67;;;14.80;69.20;;;;;;5048428;28;20053;-75
2022/10/07 00:58:51;;;;;;;7.70;2.55;;;14.80;69.30;;;;;;5045831;28;20021;-74
2022/10/07 01:01:19;;;;;;;5.68;2.13;;;14.80;69.30;;;;;;5017273;28;20032;-74
2022/10/07 01:03:47;;;;;;;8.88;2.15;;;14.70;69.70;;;;;;5057550;28;20036;-75
2022/10/07 01:06:20;;;;;;;8.40;1.67;;;14.70;69.20;;;;;;5025091;28;20021;-75
2022/10/07 01:08:48;;;;;;;5.32;1.50;;;14.70;69.30;;;;;;5047744;28;20039;-75
2022/10/07 01:11:42;;;;;;;9.52;2.05;;;14.70;69.40;;;;;;5053316;28;20040;-75
2022/10/07 01:14:23;;;;;;;4.00;1.88;;;14.70;69.40;;;;;;5049776;28;20358;-76
2022/10/07 01:17:03;;;;;;;6.88;2.08;;;14.60;69.30;;;;;;5028532;28;20048;-74
2022/10/07 01:19:58;;;;;;;8.45;2.67;;;14.60;69.40;;;;;;5046206;28;20420;-75
2022/10/07 01:22:36;;;;;;;4.05;1.50;;;14.60;69.50;;;;;;5044778;28;20029;-74
2022/10/07 01:25:25;;;;;;;4.13;1.50;;;14.60;69.40;;;;;;5047815;28;20041;-74
2022/10/07 01:28:04;;;;;;;5.28;1.50;;;14.60;69.50;;;;;;5035263;28;20051;-74
2022/10/07 01:30:35;;;;;;;8.10;1.90;;;14.50;69.30;;;;;;5051815;28;20036;-73
2022/10/07 01:33:06;;;;;;;9.30;2.55;;;14.50;69.40;;;;;;5034630;28;20663;-75
2022/10/07 01:35:36;;;;;;;9.90;2.22;;;14.50;69.40;;;;;;5058010;28;20400;-74
2022/10/07 01:38:11;;;;;;;5.28;1.83;;;14.50;69.50;;;;;;5041544;28;20033;-75
2022/10/07 01:40:53;;;;;;;6.00;2.20;;;14.50;69.60;;;;;;5037607;28;20480;-75
2022/10/07 01:43:22;;;;;;;8.35;2.22;;;14.50;69.60;;;;;;5044366;28;20455;-74
2022/10/07 01:45:51;;;;;;;6.55;1.65;;;14.50;69.60;;;;;;5044158;28;20512;-74
2022/10/07 01:48:17;;;;;;;6.63;1.80;;;14.50;69.60;;;;;;5054550;28;20037;-74
2022/10/07 01:50:47;;;;;;;8.60;2.22;;;14.50;69.70;;;;;;5045815;28;20037;-75
2022/10/07 01:53:43;;;;;;;5.85;1.70;;;14.40;69.50;;;;;;5064971;28;20020;-74
2022/10/07 01:56:15;;;;;;;4.75;1.38;;;14.40;69.70;;;;;;5065119;28;20071;-76
2022/10/07 01:59:19;;;;;;;7.75;1.83;;;14.40;69.60;;;;;;5056063;28;20024;-75
2022/10/07 02:02:23;;;;;;;8.13;1.58;;;14.40;69.80;;;;;;5049827;28;20044;-74
2022/10/07 02:04:58;;;;;;;8.43;2.45;;;14.40;69.80;;;;;;5042753;28;20037;-73
2022/10/07 02:08:08;;;;;;;5.15;1.83;;;14.30;69.60;;;;;;5044444;28;20037;-74
2022/10/07 02:11:12;;;;;;;6.32;1.85;;;14.30;69.60;;;;;;5045311;28;20098;-74
2022/10/07 02:14:07;;;;;;;6.70;1.70;;;14.30;69.70;;;;;;5048642;28;20389;-75
2022/10/07 02:17:04;;;;;;;5.07;2.25;;;14.20;69.60;;;;;;5045208;28;20163;-74
2022/10/07 02:19:38;;;;;;;4.35;1.52;;;14.20;69.70;;;;;;5047304;28;20082;-76
2022/10/07 02:22:07;;;;;;;6.53;1.70;;;14.20;69.70;;;;;;5053265;28;20033;-76
2022/10/07 02:24:37;;;;;;;8.13;1.92;;;14.10;69.60;;;;;;5036187;28;20038;-75
2022/10/07 02:27:10;;;;;;;6.80;1.77;;;14.10;69.60;;;;;;5061517;28;20446;-74
2022/10/07 02:29:40;;;;;;;7.75;1.83;;;14.10;69.70;;;;;;5044699;28;20029;-75
2022/10/07 02:32:11;;;;;;;7.93;2.17;;;14.10;69.80;;;;;;5027550;28;20044;-75
2022/10/07 02:34:40;;;;;;;7.57;1.95;;;14.10;69.80;;;;;;5043811;28;20029;-75
2022/10/07 02:37:17;;;;;;;4.32;1.40;;;14.10;69.90;;;;;;5024634;28;20065;-76
2022/10/07 02:39:45;;;;;;;8.35;2.17;;;14.10;70.00;;;;;;5024200;28;20512;-74
2022/10/07 02:42:44;;;;;;;4.05;1.52;;;14.20;70.10;;;;;;5040847;28;20037;-73
2022/10/07 02:45:16;;;;;;;4.40;1.60;;;14.10;70.60;;;;;;5047294;28;20045;-73
2022/10/07 02:48:05;;;;;;;7.65;1.92;;;14.10;70.00;;;;;;5048035;28;20036;-74
2022/10/07 02:50:41;;;;;;;5.13;1.55;;;14.10;70.10;;;;;;5032410;28;20546;-76
2022/10/07 02:53:12;;;;;;;9.07;2.13;;;14.10;70.10;;;;;;5041081;28;20033;-74
2022/10/07 02:55:41;;;;;;;8.02;2.42;;;14.10;70.10;;;;;;5050969;28;20044;-75
2022/10/07 02:58:11;;;;;;;5.78;1.58;;;14.10;70.20;;;;;;5051675;28;20029;-75
2022/10/07 03:00:42;;;;;;;7.43;1.40;;;14.20;70.40;;;;;;5059027;28;20020;-75
2022/10/07 03:03:09;;;;;;;6.03;1.45;;;14.10;70.30;;;;;;5037514;28;20028;-75
2022/10/07 03:05:47;;;;;;;4.90;1.42;;;14.10;70.30;;;;;;5061588;28;20031;-75
2022/10/07 03:08:13;;;;;;;5.28;1.70;;;14.20;70.50;;;;;;5048148;28;20024;-75
2022/10/07 03:10:42;;;;;;;9.02;1.52;;;14.20;70.50;;;;;;5034712;28;20044;-75
2022/10/07 03:13:11;;;;;;;8.98;1.90;;;14.20;70.60;;;;;;5063100;28;20263;-75
2022/10/07 03:15:40;;;;;;;5.65;1.40;;;14.20;70.50;;;;;;5048635;28;20087;-74
2022/10/07 03:18:24;;;;;;;5.97;2.10;;;14.20;70.50;;;;;;5031794;28;20501;-74
2022/10/07 03:20:54;;;;;;;;;;;14.20;70.50;;;;;;5046108;28;20033;-75
2022/10/07 03:23:23;;;;;;;8.25;1.42;;;14.20;70.50;;;;;;5062271;28;19909;-75
2022/10/07 03:25:51;;;;;;;5.90;2.35;;;14.20;70.30;;;;;;5052732;28;20027;-75
2022/10/07 03:28:19;;;;;;;4.20;1.55;;;14.20;70.40;;;;;;5050299;28;20041;-75
2022/10/07 03:30:47;;;;;;;6.60;1.30;;;14.20;70.50;;;;;;5052592;28;20033;-75
2022/10/07 03:33:15;;;;;;;6.78;1.80;;;14.20;70.50;;;;;;5051657;28;20047;-73
2022/10/07 03:35:42;;;;;;;7.68;1.80;;;14.20;70.50;;;;;;5045794;28;20426;-73
2022/10/07 03:38:10;;;;;;;7.63;2.33;;;14.20;70.60;;;;;;5016386;28;20037;-74
2022/10/07 03:40:43;;;;;;;4.60;1.20;;;14.20;70.60;;;;;;5054245;28;20038;-74
2022/10/07 03:43:09;;;;;;;3.78;1.30;;;14.20;70.70;;;;;;5041659;28;20021;-74
2022/10/07 03:45:43;;;;;;;10.05;2.22;;;14.20;70.60;;;;;;5068289;28;20574;-74
2022/10/07 03:48:09;;;;;;;4.93;1.30;;;14.30;70.90;;;;;;5040962;28;20374;-75
2022/10/07 03:50:36;;;;;;;4.90;1.75;;;14.20;70.70;;;;;;5041827;28;20122;-74
2022/10/07 03:53:03;;;;;;;4.63;2.20;;;14.30;70.90;;;;;;5049136;28;20033;-75
2022/10/07 03:55:31;;;;;;;6.75;1.40;;;14.20;70.70;;;;;;5052134;28;20558;-75
2022/10/07 03:57:57;;;;;;;4.63;1.55;;;14.30;70.90;;;;;;5051943;28;20072;-75
2022/10/07 04:00:25;;;;;;;6.53;1.40;;;14.30;70.90;;;;;;5045341;28;20029;-75
2022/10/07 04:02:56;;;;;;;5.10;1.27;;;14.30;70.90;;;;;;5040896;28;20033;-75
2022/10/07 04:05:24;;;;;;;4.40;1.55;;;14.30;71.00;;;;;;5038231;28;20071;-75
2022/10/07 04:07:51;;;;;;;6.80;1.63;;;14.30;70.90;;;;;;5050499;28;20098;-74
2022/10/07 04:10:20;;;;;;;6.93;1.77;;;14.30;71.50;;;;;;5051016;28;20029;-74
2022/10/07 04:12:47;;;;;;;5.60;1.35;;;14.30;71.00;;;;;;5052134;28;20366;-74
2022/10/07 04:15:18;;;;;;;4.18;1.27;;;14.30;71.00;;;;;;5047158;28;20081;-74
2022/10/07 04:17:46;;;;;;;7.22;1.52;;;14.30;71.00;;;;;;5031123;28;20443;-74
2022/10/07 04:20:15;;;;;;;6.18;1.40;;;14.30;71.00;;;;;;5017046;28;20030;-73
2022/10/07 04:22:43;;;;;;;7.15;1.38;;;14.30;71.00;;;;;;5051815;28;20029;-75
2022/10/07 04:28:04;;;;;;;7.50;1.90;;;14.30;71.10;;;;;;5040617;28;20030;-73
2022/10/07 04:30:33;;;;;;;5.67;2.13;;;14.30;71.10;;;;;;5041744;28;20016;-74
2022/10/07 04:33:00;;;;;;;6.18;1.80;;;14.30;71.10;;;;;;5051563;28;20262;-75
2022/10/07 04:35:29;;;;;;;4.15;1.20;;;14.30;71.10;;;;;;5030936;28;20037;-74
2022/10/07 04:37:56;;;;;;;8.05;1.55;;;14.30;71.20;;;;;;5027620;28;20041;-74
2022/10/07 04:40:24;;;;;;;7.15;1.77;;;14.40;71.50;;;;;;5032968;28;20040;-75
2022/10/07 04:45:37;;;;;;;7.30;1.70;;;14.30;71.30;;;;;;5042521;28;20041;-74
2022/10/07 04:48:07;;;;;;;7.78;2.33;;;14.40;71.50;;;;;;5050048;28;20036;-76
2022/10/07 04:50:38;;;;;;;3.67;1.38;;;14.40;71.50;;;;;;5045494;28;20104;-75
2022/10/07 04:53:10;;;;;;;4.28;1.25;;;14.40;71.50;;;;;;5044144;28;20359;-74
2022/10/07 04:55:42;;;;;;;6.30;2.47;;;14.50;71.70;;;;;;5047696;28;20060;-74
2022/10/07 04:58:08;;;;;;;5.78;1.65;;;14.50;71.70;;;;;;5045441;28;20037;-75
2022/10/07 05:00:44;;;;;;;8.43;1.55;;;14.50;71.70;;;;;;5047545;28;20025;-74
2022/10/07 05:03:14;;;;;;;6.47;1.30;;;14.50;71.70;;;;;;5057859;28;20086;-74
2022/10/07 05:05:45;;;;;;;4.63;1.27;;;14.50;71.70;;;;;;5052612;28;20025;-73
2022/10/07 05:08:14;;;;;;;5.40;1.20;;;14.50;71.70;;;;;;5032124;28;20033;-75
2022/10/07 05:10:41;;;;;;;6.20;1.23;;;14.50;71.80;;;;;;5051369;28;20491;-75
2022/10/07 05:13:11;;;;;;;6.25;1.88;;;14.50;71.80;;;;;;5018877;28;20104;-75
2022/10/07 05:15:53;;;;;;;8.60;1.23;;;14.50;71.80;;;;;;5041999;28;20055;-79
2022/10/07 05:18:21;;;;;;;7.15;1.60;;;14.60;72.00;;;;;;5047325;28;20361;-77
2022/10/07 05:20:48;;;;;;;6.13;2.00;;;14.60;71.90;;;;;;5051324;28;20463;-76
2022/10/07 05:23:17;;;;;;;6.82;1.45;;;14.60;71.90;;;;;;5030698;28;20037;-76
2022/10/07 05:25:44;;;;;;;4.45;1.13;;;14.50;71.70;;;;;;5047944;28;20036;-76
2022/10/07 05:28:12;;;;;;;6.05;1.13;;;14.60;71.90;;;;;;5050912;28;20365;-76
2022/10/07 05:30:40;;;;;;;5.82;1.75;;;14.60;71.90;;;;;;5050086;28;20235;-77
2022/10/07 05:33:09;;;;;;;6.80;1.70;;;14.60;71.90;;;;;;5031798;28;20111;-76
2022/10/07 05:35:36;;;;;;;6.15;1.40;;;14.50;71.80;;;;;;5032668;28;20137;-74
2022/10/07 05:38:03;;;;;;;6.68;1.30;;;14.50;71.80;;;;;;5046050;28;20431;-74
2022/10/07 05:40:28;;;;;;;8.00;2.92;;;14.50;71.80;;;;;;5046138;28;21028;-77
2022/10/07 05:42:55;;;;;;;4.40;1.17;;;14.50;71.80;;;;;;5049111;28;20443;-77
2022/10/07 05:45:22;;;;;;;5.78;1.85;;;14.50;71.80;;;;;;5010219;28;20074;-76
2022/10/07 05:47:48;;;;;;;5.43;1.17;;;14.50;71.80;;;;;;5054440;28;20243;-77
2022/10/07 05:50:14;;;;;;;5.80;1.52;;;14.50;71.80;;;;;;5046418;28;20221;-76
2022/10/07 05:52:44;;;;;;;7.53;1.40;;;14.50;71.80;;;;;;5027153;28;20033;-74
2022/10/07 05:55:10;;;;;;;7.75;1.55;;;14.50;71.80;;;;;;5027390;28;20047;-75
2022/10/07 05:57:38;;;;;;;5.22;1.08;;;14.50;71.80;;;;;;5055024;28;20134;-74
2022/10/07 06:00:07;;;;;;;4.13;1.60;;;14.50;71.80;;;;;;5027196;28;20588;-75
2022/10/07 06:02:42;;;;;;;7.68;1.30;;;14.50;71.70;;;;;;5055563;28;20036;-77
2022/10/07 06:05:09;;;;;;;7.32;1.83;;;14.50;71.70;;;;;;5047367;28;20029;-79
2022/10/07 06:07:37;;;;;;;7.78;1.73;;;14.50;71.70;;;;;;5029017;28;20102;-80
2022/10/07 06:13:08;;;;;;;6.22;1.38;;;14.50;71.70;;;;;;5046536;28;20249;-77
2022/10/07 06:15:42;;;;;;;5.85;1.30;;;14.40;71.50;;;;;;5037991;28;20056;-78
2022/10/07 06:18:09;;;;;;;4.80;1.35;;;14.40;71.50;;;;;;5022435;28;20052;-79
2022/10/07 06:20:36;;;;;;;4.95;1.00;;;14.50;71.70;;;;;;5050373;28;20024;-78
2022/10/07 06:23:03;;;;;;;5.65;1.33;;;14.40;71.50;;;;;;5047650;28;20037;-75
2022/10/07 06:25:30;;;;;;;8.90;1.80;;;14.50;71.70;;;;;;5029545;28;20108;-75
2022/10/07 06:27:58;;;;;;;6.18;1.55;;;14.50;71.70;;;;;;5046245;28;20052;-79
2022/10/07 06:30:26;;;;;;;4.68;1.33;;;14.50;71.70;;;;;;5029115;28;20039;-79
2022/10/07 06:32:55;;;;;;;8.25;1.73;;;14.40;71.50;;;;;;5051543;28;20029;-75
2022/10/07 06:35:21;;;;;;;7.25;1.60;;;14.40;71.50;;;;;;5047338;28;20381;-77
2022/10/07 06:37:51;;;;;;;9.18;1.88;;;14.40;71.50;;;;;;5046525;28;20434;-75
2022/10/07 06:40:19;;;;;;;6.82;1.10;;;14.40;71.50;;;;;;5030005;28;20044;-74
2022/10/07 06:42:46;;;;;;;3.08;1.20;;;14.50;71.70;;;;;;5045917;28;20040;-79
2022/10/07 06:45:48;;;;;;;11.05;2.35;;;14.50;71.70;;;;;;5060696;28;20045;-80
2022/10/07 06:48:16;;;;;;;6.20;1.23;;;14.40;71.40;;;;;;5032642;28;20041;-78
2022/10/07 06:50:50;;;;;;;5.13;1.52;;;14.40;71.40;;;;;;5045077;28;20062;-78
2022/10/07 06:53:20;;;;;;;9.13;1.80;;;14.40;71.50;;;;;;5039434;28;20160;-77
2022/10/07 06:55:52;;;;;;;5.97;1.40;;;14.40;71.40;;;;;;5056553;28;20499;-77
2022/10/07 06:58:26;;;;;;;3.60;1.10;;;14.40;71.40;;;;;;5031813;28;20041;-76
2022/10/07 07:00:55;;;;;;;5.47;1.38;;;14.40;71.40;;;;;;5055322;28;20095;-75
2022/10/07 07:03:24;;;;;;;5.57;1.25;;;14.40;71.40;;;;;;5052796;28;20025;-76
2022/10/07 07:05:53;;;;;;;5.40;1.30;;;14.40;71.40;;;;;;5034201;28;20055;-74
2022/10/07 07:08:23;;;;;;;6.55;2.40;;;14.50;71.70;;;;;;5046966;28;20482;-74
2022/10/07 07:10:53;;;;;;;6.03;1.30;;;14.40;71.40;;;;;;5049286;28;20037;-79
2022/10/07 07:13:20;;;;;;;5.05;1.30;;;14.50;71.60;;;;;;5050663;28;20090;-79
2022/10/07 07:15:57;;;;;;;3.45;1.02;;;14.50;71.60;;;;;;5052827;28;20024;-78
2022/10/07 07:18:28;;;;;;;6.03;1.58;;;14.50;71.60;;;;;;5049568;28;20037;-77
2022/10/07 07:21:03;;;;;;;4.22;1.23;;;14.50;71.50;;;;;;5030304;28;20036;-79
2022/10/07 07:23:31;;;;;;;15.73;2.97;;;14.60;71.70;;;;;;5046361;28;20149;-75
2022/10/07 07:25:59;;;;;;;5.32;1.60;;;14.60;71.60;;;;;;5043798;28;20035;-75
2022/10/07 07:28:27;;;;;;;8.77;2.22;;;14.60;71.60;;;;;;5047098;28;20419;-76
2022/10/07 07:30:53;;;;;;;4.95;1.67;;;14.60;71.50;;;;;;5042737;28;20577;-81
2022/10/07 07:33:19;;;;;;;6.70;1.48;;;14.60;71.70;;;;;;5039714;28;20040;-80
2022/10/07 07:35:47;;;;;;;10.20;1.70;;;14.70;72.20;;;;;;5053367;28;20032;-81
2022/10/07 07:38:13;;;;;;;5.05;1.30;;;14.80;72.70;;;;;;5033228;28;20213;-80
2022/10/07 07:40:39;;;;;;;9.63;2.95;;;15.00;73.10;;;;;;5054605;28;20468;-82
2022/10/07 07:43:07;;;;;;;4.03;1.20;;;15.10;73.30;;;;;;5047998;28;20825;-79
2022/10/07 07:45:36;;;;;;;6.97;2.53;;;15.30;73.50;;;;;;5045821;28;20032;-78
2022/10/07 07:48:04;;;;;;;7.25;2.25;;;15.50;73.70;;;;;;5048574;28;20033;-80
2022/10/07 07:50:33;;;;;;;6.65;2.33;;;15.60;73.70;;;;;;5044878;28;20037;-77
2022/10/07 07:53:03;;;;;;;7.40;2.28;;;15.70;73.70;;;;;;5043710;28;20364;-77
2022/10/07 07:55:30;;;;;;;5.47;1.90;;;15.90;73.90;;;;;;5057195;28;20270;-78
2022/10/07 07:57:57;;;;;;;4.75;1.30;;;16.00;74.40;;;;;;5045590;28;20056;-77
2022/10/07 08:00:23;;;;;;;8.98;2.22;;;16.10;74.00;;;;;;5029924;28;20032;-77
2022/10/07 08:02:58;;;;;;;7.57;2.05;;;16.20;74.00;;;;;;5047421;28;20041;-78
2022/10/07 08:05:24;;;;;;;17.15;2.65;;;16.40;74.10;;;;;;5043853;28;20049;-76
2022/10/07 08:07:57;;;;;;;;;;;16.50;74.10;;;;;;5048637;28;20441;-76
2022/10/07 08:10:25;;;;;;;6.07;2.80;;;16.50;73.80;;;;;;5049180;28;19919;-81
2022/10/07 08:12:51;;;;;;;8.57;3.15;;;16.60;73.70;;;;;;5058818;28;20037;-79
2022/10/07 08:15:17;;;;;;;4.60;1.55;;;16.70;73.70;;;;;;5016828;28;20049;-76
2022/10/07 08:17:43;;;;;;;7.15;1.83;;;16.80;73.70;;;;;;5033037;28;20472;-78
2022/10/07 08:20:09;;;;;;;6.60;1.70;;;16.90;73.70;;;;;;5047801;28;20235;-77
2022/10/07 08:22:35;;;;;;;9.43;1.90;;;16.90;73.50;;;;;;5040283;28;20033;-82
2022/10/07 08:25:03;;;;;;;6.05;1.48;;;17.00;73.50;;;;;;5047063;28;20069;-82
2022/10/07 08:27:29;;;;;;;8.43;3.05;;;17.10;73.60;;;;;;5044686;28;20048;-81
2022/10/07 08:29:55;;;;;;;6.15;1.90;;;17.10;73.40;;;;;;5050446;28;20096;-80
2022/10/07 08:32:21;;;;;;;4.85;1.38;;;17.20;74.00;;;;;;5024920;28;20120;-81
2022/10/07 08:34:47;;;;;;;3.38;1.70;;;17.20;73.30;;;;;;5044131;28;20029;-83
2022/10/07 08:37:19;;;;;;;7.88;2.03;;;17.30;73.30;;;;;;5037779;28;20048;-82
2022/10/07 08:39:45;;;;;;;6.22;1.25;;;17.40;73.30;;;;;;5046945;28;20029;-82
2022/10/07 08:42:22;;;;;;;8.25;2.22;;;17.50;73.20;;;;;;5059500;28;20285;-82
2022/10/07 08:44:49;;;;;;;4.63;1.27;;;17.60;73.10;;;;;;5045145;28;20021;-80
2022/10/07 08:47:21;;;;;;;11.18;1.33;;;17.60;72.80;;;;;;5042027;28;20020;-80
2022/10/07 08:50:05;;;;;;;7.45;1.25;;;17.70;72.70;;;;;;5042367;28;20027;-79
2022/10/07 08:52:31;;;;;;;;;;;17.80;72.60;;;;;;5052476;28;20025;-83
2022/10/07 08:55:00;;;;;;;8.00;2.00;;;17.80;72.50;;;;;;5055123;28;19913;-80
2022/10/07 08:57:55;;;;;;;7.95;1.48;;;17.90;72.50;;;;;;5049387;28;20041;-78
2022/10/07 09:00:23;;;;;;;7.10;1.30;;;17.90;72.20;;;;;;5062317;28;20036;-81
2022/10/07 09:02:57;;;;;;;5.97;1.92;;;18.10;72.30;;;;;;5028844;28;20033;-82
2022/10/07 09:05:28;;;;;;;5.97;1.83;;;18.20;72.10;;;;;;5044788;28;20584;-78
2022/10/07 09:07:59;;;;;;;5.70;1.65;;;18.30;72.00;;;;;;5045257;28;20027;-79
2022/10/07 09:10:49;;;;;;;4.93;1.30;;;18.50;71.90;;;;;;5030953;28;20049;-81
2022/10/07 09:13:20;;;;;;;14.55;3.38;;;18.60;71.50;;;;;;5051054;28;20020;-80
2022/10/07 09:16:36;;;;;;;3.05;0.88;;;18.80;71.50;;;;;;5047089;28;20040;-78
2022/10/07 09:19:05;;;;;;;6.65;1.35;;;18.90;71.30;;;;;;5040882;28;20033;-82
2022/10/07 09:21:50;;;;;;;4.13;1.58;;;19.00;71.20;;;;;;5048029;28;20029;-80
2022/10/07 09:24:29;;;;;;;9.43;1.40;;;19.10;70.90;;;;;;5037207;28;20086;-77
2022/10/07 09:27:03;;;;;;;7.28;1.83;;;19.20;70.80;;;;;;5047579;28;20040;-75
2022/10/07 09:29:29;;;;;;;5.13;2.08;;;19.20;70.70;;;;;;5050181;28;20029;-79
2022/10/07 09:31:57;;;;;;;4.63;1.20;;;19.20;70.50;;;;;;5049103;28;20083;-79
2022/10/07 09:34:28;;;;;;;3.65;1.33;;;19.30;70.50;;;;;;5046021;28;20025;-78
2022/10/07 09:37:14;;;;;;;6.60;1.35;;;19.30;70.30;;;;;;5032651;28;20508;-77
2022/10/07 09:39:41;;;;;;;6.10;1.20;;;19.40;70.20;;;;;;5048537;28;20025;-79
2022/10/07 09:42:28;;;;;;;5.97;1.35;;;19.40;70.20;;;;;;5036428;28;20084;-80
2022/10/07 09:45:00;;;;;;;5.10;1.50;;;19.40;70.00;;;;;;5057892;28;20400;-78
2022/10/07 09:47:34;;;;;;;6.28;1.45;;;19.50;70.00;;;;;;5052579;28;20036;-80
2022/10/07 09:49:59;;;;;;;3.65;0.80;;;19.60;69.90;;;;;;5044023;28;20459;-76
2022/10/07 09:52:28;;;;;;;7.78;1.35;;;19.60;69.60;;;;;;5030383;28;20025;-78
2022/10/07 09:54:57;;;;;;;2.97;0.90;;;19.70;69.50;;;;;;5039585;28;20581;-78
2022/10/07 09:57:31;;;;;;;5.72;1.40;;;19.80;69.40;;;;;;5055280;28;20028;-79
2022/10/07 10:00:12;;;;;;;4.30;1.60;;;19.90;69.20;;;;;;5032282;28;20199;-78
2022/10/07 10:02:41;;;;;;;6.10;2.20;;;19.90;69.00;;;;;;5058478;28;20044;-78
2022/10/07 10:05:29;;;;;;;6.15;1.40;;;20.00;69.00;;;;;;5051863;28;20589;-78
2022/10/07 10:08:00;;;;;;;6.70;2.08;;;20.20;68.70;;;;;;5051265;28;20045;-77
2022/10/07 10:10:32;;;;;;;2.13;0.95;;;20.30;68.60;;;;;;5033113;28;20028;-76
2022/10/07 10:13:01;;;;;;;5.18;1.60;;;20.40;68.40;;;;;;5065007;28;20119;-77
2022/10/07 10:15:43;;;;;;;4.63;1.60;;;20.50;68.30;;;;;;5033915;28;20404;-78
2022/10/07 10:18:23;;;;;;;5.60;2.05;;;20.60;68.00;;;;;;5042578;28;20775;-77
2022/10/07 10:20:49;;;;;;;3.08;0.95;;;20.70;67.80;;;;;;5051437;28;20132;-78
2022/10/07 10:23:34;;;;;;;6.75;1.50;;;20.70;67.70;;;;;;5048309;28;20573;-77
2022/10/07 10:29:13;;;;;;;7.10;1.98;;;20.90;67.20;;;;;;5033272;28;20131;-82
2022/10/07 10:31:52;;;;;;;8.32;1.20;;;21.00;67.10;;;;;;5042803;28;20181;-81
2022/10/07 10:34:55;;;;;;;6.75;1.15;;;21.20;67.10;;;;;;5042469;28;20079;-79
2022/10/07 10:37:37;;;;;;;6.93;1.98;;;21.30;66.70;;;;;;5041593;28;20505;-79
2022/10/07 10:40:34;;;;;;;4.88;1.27;;;21.50;66.70;;;;;;5047220;28;20047;-84
2022/10/07 10:43:25;;;;;;;5.00;1.30;;;21.60;66.30;;;;;;5047659;28;20497;-81
2022/10/07 10:46:17;;;;;;;4.07;1.63;;;21.70;66.20;;;;;;5025045;28;20506;-82
2022/10/07 10:49:02;;;;;;;4.28;1.25;;;21.70;65.80;;;;;;5042181;28;20047;-81
2022/10/07 10:51:56;;;;;;;3.63;1.10;;;21.70;65.70;;;;;;5048452;28;20032;-82
2022/10/07 10:54:42;;;;;;;6.22;1.55;;;21.70;65.60;;;;;;5034913;28;20456;-81
2022/10/07 10:57:38;;;;;;;3.47;1.13;;;21.70;65.50;;;;;;5036582;28;20045;-80
2022/10/07 11:00:08;;;;;;;3.05;0.82;;;21.70;65.50;;;;;;5041551;28;20078;-79
2022/10/07 11:02:51;;;;;;;4.13;0.80;;;21.60;65.30;;;;;;5056497;28;20047;-79
2022/10/07 11:05:24;;;;;;;;;;;21.70;65.10;;;;;;5062459;28;20028;-78
2022/10/07 11:07:57;;;;;;;5.13;1.23;;;21.70;65.50;;;;;;5047853;28;19932;-86
2022/10/07 11:10:25;;;;;;;4.05;0.90;;;21.70;65.50;;;;;;5043455;28;20788;-80
2022/10/07 11:12:59;;;;;;;4.30;0.90;;;21.60;65.10;;;;;;5055402;28;20048;-78
2022/10/07 11:15:38;;;;;;;4.82;0.75;;;21.60;64.80;;;;;;5050775;28;20029;-86
2022/10/07 11:18:11;;;;;;;4.70;0.80;;;21.70;64.80;;;;;;5047161;28;20269;-82
2022/10/07 11:20:47;;;;;;;3.08;1.15;;;21.80;64.80;;;;;;5025107;28;20626;-79
2022/10/07 11:23:40;;;;;;;3.65;0.93;;;22.00;64.70;;;;;;5042006;28;20047;-80
2022/10/07 11:26:28;;;;;;;4.10;1.10;;;22.10;64.10;;;;;;5055317;28;20037;-78
2022/10/07 11:28:57;;;;;;;5.28;1.00;;;22.30;64.20;;;;;;5045387;28;20403;-79
2022/10/07 11:31:38;;;;;;;3.10;0.82;;;22.30;64.00;;;;;;5058480;28;20100;-79
2022/10/07 11:34:18;;;;;;;8.13;2.13;;;22.50;63.80;;;;;;5063623;28;20029;-78
2022/10/07 11:36:55;;;;;;;5.18;1.25;;;22.50;63.50;;;;;;5060392;28;20041;-80
2022/10/07 11:39:22;;;;;;;2.58;0.95;;;22.60;63.50;;;;;;5043442;28;20100;-81
2022/10/07 11:42:07;;;;;;;3.42;1.00;;;22.70;63.60;;;;;;5057792;28;20142;-75
2022/10/07 11:44:43;;;;;;;5.07;1.10;;;22.70;63.20;;;;;;5047212;28;20052;-82
2022/10/07 11:47:16;;;;;;;3.40;0.82;;;22.80;63.50;;;;;;5052225;28;20526;-81
2022/10/07 11:50:03;;;;;;;5.05;1.08;;;22.80;63.30;;;;;;5049141;28;20341;-81
2022/10/07 11:52:31;;;;;;;3.63;0.88;;;22.90;63.00;;;;;;5049333;28;20029;-83
2022/10/07 11:55:06;;;;;;;5.10;1.00;;;23.00;63.00;;;;;;5055536;28;20040;-85
2022/10/07 11:57:36;;;;;;;5.72;0.98;;;23.20;62.80;;;;;;5052484;28;20037;-82
2022/10/07 12:00:03;;;;;;;3.25;1.30;;;23.30;62.60;;;;;;5048990;28;20141;-79
2022/10/07 12:02:40;;;;;;;4.45;1.17;;;23.40;62.40;;;;;;5062584;28;20044;-75
2022/10/07 12:05:27;;;;;;;5.10;1.25;;;23.50;62.20;;;;;;5045543;28;20451;-77
2022/10/07 12:08:17;;;;;;;3.65;0.82;;;23.60;61.90;;;;;;5050977;28;20055;-78
2022/10/07 12:10:43;;;;;;;5.88;0.93;;;23.70;61.60;;;;;;5051064;28;20029;-82
2022/10/07 12:13:14;;;;;;;5.55;1.00;;;23.80;61.70;;;;;;5052347;28;20039;-83
2022/10/07 12:15:42;;;;;;;6.13;1.23;;;23.80;61.60;;;;;;5050800;28;20047;-80
2022/10/07 12:18:13;;;;;;;4.95;1.25;;;23.80;61.40;;;;;;5056656;28;20037;-78
2022/10/07 12:20:53;;;;;;;3.35;0.80;;;23.90;61.40;;;;;;5050311;28;20037;-83
2022/10/07 12:23:24;;;;;;;3.88;1.45;;;23.90;61.10;;;;;;5050431;28;20036;-83
2022/10/07 12:26:04;;;;;;;2.50;0.75;;;24.00;61.10;;;;;;5039808;28;20039;-83
2022/10/07 12:28:38;;;;;;;3.65;1.08;;;24.10;61.10;;;;;;5049808;28;20021;-82
2022/10/07 12:31:14;;;;;;;6.25;1.05;;;24.20;60.90;;;;;;5047947;28;20500;-82
2022/10/07 12:33:44;;;;;;;4.22;1.02;;;24.20;60.60;;;;;;5041943;28;20040;-80
2022/10/07 12:36:23;;;;;;;4.13;1.15;;;24.20;60.70;;;;;;5049048;28;20087;-86
2022/10/07 12:38:58;;;;;;;3.50;0.80;;;24.10;60.50;;;;;;5050784;28;20047;-83
2022/10/07 12:41:38;;;;;;;3.03;1.23;;;24.10;60.50;;;;;;5048621;28;20037;-77
2022/10/07 12:44:29;;;;;;;3.58;1.33;;;24.10;60.50;;;;;;5045157;28;20054;-78
2022/10/07 12:47:05;;;;;;;5.45;1.08;;;24.10;60.70;;;;;;5057992;28;20033;-83
2022/10/07 12:49:38;;;;;;;4.57;1.20;;;24.00;60.60;;;;;;5048305;28;20032;-84
2022/10/07 12:52:11;;;;;;;5.10;1.60;;;24.00;60.70;;;;;;5047337;28;20033;-83
2022/10/07 12:54:46;;;;;;;4.60;0.90;;;24.00;60.60;;;;;;5050745;28;20029;-88
2022/10/07 12:57:18;;;;;;;4.03;1.20;;;24.00;60.70;;;;;;5046638;28;20587;-81
2022/10/07 12:59:47;;;;;;;2.30;1.00;;;24.00;60.40;;;;;;5043276;28;20093;-86
2022/10/07 13:02:34;;;;;;;5.88;2.08;;;23.90;60.20;;;;;;5036697;28;20037;-86
2022/10/07 13:05:38;;;;;;;4.43;1.42;;;24.00;60.20;;;;;;5024915;28;20032;-90
2022/10/07 13:08:43;;;;;;;3.55;0.98;;;24.00;59.70;;;;;;5026791;28;20044;-83
2022/10/07 13:11:14;;;;;;;5.00;0.90;;;24.10;59.60;;;;;;5054285;28;20050;-81
2022/10/07 13:13:45;;;;;;;4.93;1.70;;;24.20;59.60;;;;;;5051631;28;20037;-82
2022/10/07 13:16:32;;;;;;;2.50;0.93;;;24.30;59.50;;;;;;5054055;28;20024;-83
2022/10/07 13:19:18;;;;;;;4.45;1.15;;;24.40;59.10;;;;;;5046859;28;20036;-85
2022/10/07 13:21:57;;;;;;;3.33;1.10;;;24.50;58.90;;;;;;5030040;28;20029;-76
2022/10/07 13:24:30;;;;;;;3.42;1.25;;;24.70;59.00;;;;;;5053435;28;20024;-77
2022/10/07 13:26:58;;;;;;;3.00;1.15;;;24.80;58.80;;;;;;5048830;28;20040;-86
2022/10/07 13:29:32;;;;;;;3.65;0.93;;;25.00;58.80;;;;;;5057609;28;20438;-82
2022/10/07 13:32:16;;;;;;;4.18;1.30;;;25.10;58.50;;;;;;5025989;28;20058;-82